Time;durP1;ratioP1;P1;durP2;ratioP2;P2;SDS_P1;SDS_P2;PMS_P1;PMS_P2;Temp;Humidity;BMP_temperature;BMP_pressure;BME280_temperature;BME280_humidity;BME280_pressure;Samples;Min_cycle;Max_cycle;Signal;HPM_P1;HPM_P2
2023/08/12 00:01:48;;;;;;;19.27;7.10;;;;;;;;;;5016849;28;20068;-70
2023/08/12 00:04:15;;;;;;;16.40;5.95;;;;;;;;;;5015660;28;20037;-69
2023/08/12 00:06:41;;;;;;;17.10;6.28;;;;;;;;;;5048241;28;20037;-69
2023/08/12 00:09:07;;;;;;;17.77;6.50;;;;;;;;;;5020656;28;20111;-71
2023/08/12 00:11:32;;;;;;;19.80;7.45;;;;;;;;;;5014355;28;20033;-71
2023/08/12 00:13:58;;;;;;;19.30;6.65;;;;;;;;;;5016954;28;20053;-70
2023/08/12 00:16:23;;;;;;;15.65;5.63;;;;;;;;;;5017250;28;20037;-71
2023/08/12 00:18:51;;;;;;;17.13;7.05;;;;;;;;;;5016075;28;20047;-70
2023/08/12 00:21:16;;;;;;;25.85;9.75;;;;;;;;;;5014483;28;20036;-70
2023/08/12 00:23:42;;;;;;;22.30;7.70;;;;;;;;;;5004659;28;20071;-70
2023/08/12 00:26:08;;;;;;;19.08;7.60;;;;;;;;;;5014807;28;20040;-70
2023/08/12 00:28:33;;;;;;;18.92;6.65;;;;;;;;;;5015901;28;20052;-70
2023/08/12 00:30:59;;;;;;;16.23;6.40;;;;;;;;;;5016962;28;20095;-70
2023/08/12 00:33:24;;;;;;;18.52;6.80;;;;;;;;;;5017931;28;20045;-71
2023/08/12 00:35:49;;;;;;;18.65;7.28;;;;;;;;;;5014546;28;20033;-71
2023/08/12 00:38:15;;;;;;;16.48;6.95;;;;;;;;;;5016399;28;20033;-71
2023/08/12 00:40:40;;;;;;;16.50;6.25;;;;;;;;;;5013785;28;20195;-71
2023/08/12 00:43:09;;;;;;;19.45;6.85;;;;;;;;;;5015022;28;20086;-71
2023/08/12 00:45:34;;;;;;;23.45;8.32;;;;;;;;;;5018653;28;20050;-72
2023/08/12 00:48:00;;;;;;;18.27;7.32;;;;;;;;;;5021590;28;20231;-70
2023/08/12 00:50:25;;;;;;;22.52;7.20;;;;;;;;;;5017850;28;20044;-70
2023/08/12 00:52:51;;;;;;;18.27;6.07;;;;;;;;;;5018114;28;20069;-70
2023/08/12 00:55:16;;;;;;;24.15;7.60;;;;;;;;;;5007935;28;20036;-70
2023/08/12 00:57:42;;;;;;;19.33;6.82;;;;;;;;;;5031965;28;20674;-71
2023/08/12 01:00:07;;;;;;;11.82;5.32;;;;;;;;;;5020183;28;20134;-69
2023/08/12 01:02:33;;;;;;;16.55;6.10;;;;;;;;;;5017285;28;20037;-70
2023/08/12 01:04:58;;;;;;;15.00;6.78;;;;;;;;;;5018869;28;20037;-69
2023/08/12 01:07:23;;;;;;;15.43;5.90;;;;;;;;;;4998810;28;20034;-69
2023/08/12 01:09:49;;;;;;;11.70;4.80;;;;;;;;;;4982729;28;20038;-70
2023/08/12 01:12:21;;;;;;;19.77;6.18;;;;;;;;;;4998770;28;20056;-69
2023/08/12 01:14:46;;;;;;;;;;;;;;;;;;5014264;28;20533;-70
2023/08/12 01:17:12;;;;;;;10.52;4.97;;;;;;;;;;4997952;28;19931;-70
2023/08/12 01:19:38;;;;;;;12.90;5.20;;;;;;;;;;5000071;28;20812;-68
2023/08/12 01:22:04;;;;;;;13.13;5.65;;;;;;;;;;4998348;28;20075;-69
2023/08/12 01:24:37;;;;;;;18.27;8.20;;;;;;;;;;4997976;28;20344;-69
2023/08/12 01:27:02;;;;;;;17.95;7.05;;;;;;;;;;5015112;28;20120;-70
2023/08/12 01:29:28;;;;;;;15.60;6.35;;;;;;;;;;5017637;28;20122;-70
2023/08/12 01:32:18;;;;;;;15.05;7.18;;;;;;;;;;5020032;28;20048;-71
2023/08/12 01:34:46;;;;;;;13.25;5.70;;;;;;;;;;5017016;28;20037;-70
2023/08/12 01:37:14;;;;;;;13.98;5.70;;;;;;;;;;5007544;28;20033;-70
2023/08/12 01:39:39;;;;;;;12.43;5.50;;;;;;;;;;5017561;28;20048;-70
2023/08/12 01:42:07;;;;;;;14.52;5.60;;;;;;;;;;5018369;28;20025;-70
2023/08/12 01:44:35;;;;;;;10.77;5.10;;;;;;;;;;5017060;28;20068;-70
2023/08/12 01:47:01;;;;;;;14.43;5.97;;;;;;;;;;5023021;28;20540;-68
2023/08/12 01:49:26;;;;;;;11.20;5.30;;;;;;;;;;5017635;28;20305;-69
2023/08/12 01:51:51;;;;;;;12.52;6.03;;;;;;;;;;5016748;28;20535;-68
2023/08/12 01:54:17;;;;;;;13.63;6.40;;;;;;;;;;5018975;28;20168;-70
2023/08/12 01:56:44;;;;;;;16.40;5.55;;;;;;;;;;5017039;28;20037;-69
2023/08/12 01:59:10;;;;;;;15.60;6.78;;;;;;;;;;5016940;28;20033;-69
2023/08/12 02:01:37;;;;;;;17.77;6.97;;;;;;;;;;5018183;28;20025;-69
2023/08/12 02:04:03;;;;;;;16.80;6.72;;;;;;;;;;5049665;28;20025;-69
2023/08/12 02:06:28;;;;;;;16.42;6.03;;;;;;;;;;5025308;28;20800;-69
2023/08/12 02:08:53;;;;;;;13.55;5.50;;;;;;;;;;5021333;28;20029;-69
2023/08/12 02:11:19;;;;;;;14.75;5.80;;;;;;;;;;5017359;28;20037;-69
2023/08/12 02:13:44;;;;;;;15.88;6.47;;;;;;;;;;5015207;28;20060;-69
2023/08/12 02:16:09;;;;;;;15.30;5.82;;;;;;;;;;5016882;28;20059;-69
2023/08/12 02:18:35;;;;;;;14.57;5.78;;;;;;;;;;5015765;28;20045;-69
2023/08/12 02:21:00;;;;;;;12.57;5.90;;;;;;;;;;5016921;28;20477;-69
2023/08/12 02:23:25;;;;;;;13.68;6.97;;;;;;;;;;5017080;28;20039;-69
2023/08/12 02:25:56;;;;;;;17.65;7.90;;;;;;;;;;5017393;28;20071;-68
2023/08/12 02:28:21;;;;;;;16.35;6.80;;;;;;;;;;5017537;28;20341;-70
2023/08/12 02:30:46;;;;;;;14.38;6.30;;;;;;;;;;5047774;28;20195;-71
2023/08/12 02:33:11;;;;;;;16.85;6.93;;;;;;;;;;5018064;28;20047;-68
2023/08/12 02:35:38;;;;;;;16.05;6.60;;;;;;;;;;5047828;28;20040;-68
2023/08/12 02:38:03;;;;;;;16.63;6.60;;;;;;;;;;5017785;28;20544;-71
2023/08/12 02:40:28;;;;;;;15.88;7.40;;;;;;;;;;5016073;28;20037;-69
2023/08/12 02:42:54;;;;;;;13.38;6.32;;;;;;;;;;5016661;28;21765;-70
2023/08/12 02:45:19;;;;;;;14.63;6.00;;;;;;;;;;5016878;28;20064;-69
2023/08/12 02:47:44;;;;;;;13.45;6.38;;;;;;;;;;5015669;28;20517;-71
2023/08/12 02:50:10;;;;;;;18.55;8.05;;;;;;;;;;5016606;28;20037;-70
2023/08/12 02:52:35;;;;;;;23.80;8.93;;;;;;;;;;5014731;28;20115;-70
2023/08/12 02:55:00;;;;;;;17.25;7.28;;;;;;;;;;5017220;28;20769;-70
2023/08/12 02:57:26;;;;;;;15.65;6.75;;;;;;;;;;5015382;28;20044;-70
2023/08/12 02:59:51;;;;;;;13.57;6.25;;;;;;;;;;5015005;28;20025;-70
2023/08/12 03:02:16;;;;;;;23.55;9.13;;;;;;;;;;5014130;28;20060;-70
2023/08/12 03:04:41;;;;;;;16.27;7.53;;;;;;;;;;5016844;28;20048;-70
2023/08/12 03:07:07;;;;;;;14.65;6.30;;;;;;;;;;5022272;28;20514;-69
2023/08/12 03:09:35;;;;;;;14.82;6.00;;;;;;;;;;5014952;28;20048;-70
2023/08/12 03:12:02;;;;;;;11.90;5.75;;;;;;;;;;5015484;28;20041;-69
2023/08/12 03:14:31;;;;;;;13.80;5.80;;;;;;;;;;5012436;28;20057;-69
2023/08/12 03:16:56;;;;;;;13.27;5.57;;;;;;;;;;5020242;28;20030;-70
2023/08/12 03:19:21;;;;;;;11.30;5.53;;;;;;;;;;5015080;28;20048;-69
2023/08/12 03:21:46;;;;;;;17.40;7.38;;;;;;;;;;5023943;28;20035;-67
2023/08/12 03:24:14;;;;;;;11.07;6.35;;;;;;;;;;5016189;28;20124;-70
2023/08/12 03:26:39;;;;;;;15.98;6.80;;;;;;;;;;5015664;28;20086;-69
2023/08/12 03:29:08;;;;;;;16.60;8.38;;;;;;;;;;5017190;28;20048;-70
2023/08/12 03:31:33;;;;;;;23.30;17.48;;;;;;;;;;5013481;28;20116;-70
2023/08/12 03:34:01;;;;;;;18.92;12.73;;;;;;;;;;5014878;28;20056;-70
2023/08/12 03:36:26;;;;;;;17.95;8.20;;;;;;;;;;5019834;28;20037;-69
2023/08/12 03:38:51;;;;;;;18.02;9.55;;;;;;;;;;5016122;28;20609;-70
2023/08/12 03:41:16;;;;;;;14.55;7.82;;;;;;;;;;5000540;28;20037;-70
2023/08/12 03:43:42;;;;;;;16.77;7.57;;;;;;;;;;5022028;28;21112;-69
2023/08/12 03:46:07;;;;;;;17.80;7.90;;;;;;;;;;5017439;28;20120;-71
2023/08/12 03:48:32;;;;;;;18.05;8.07;;;;;;;;;;5016535;28;20540;-69
2023/08/12 03:50:58;;;;;;;13.30;7.75;;;;;;;;;;5015649;28;20044;-70
2023/08/12 03:53:23;;;;;;;16.65;9.25;;;;;;;;;;5016958;28;20040;-70
2023/08/12 03:55:48;;;;;;;19.35;9.88;;;;;;;;;;5014360;28;20048;-70
2023/08/12 03:58:14;;;;;;;22.83;12.15;;;;;;;;;;5016091;28;20033;-69
2023/08/12 04:00:45;;;;;;;16.55;9.90;;;;;;;;;;4997846;28;20040;-69
2023/08/12 04:03:11;;;;;;;17.77;10.30;;;;;;;;;;5013865;28;20043;-69
2023/08/12 04:05:36;;;;;;;19.77;10.25;;;;;;;;;;5017346;28;20025;-69
2023/08/12 04:08:01;;;;;;;17.50;9.98;;;;;;;;;;5017206;28;20658;-69
2023/08/12 04:10:27;;;;;;;18.05;10.10;;;;;;;;;;5016617;28;20065;-69
2023/08/12 04:12:52;;;;;;;24.00;12.07;;;;;;;;;;5019290;28;20505;-69
2023/08/12 04:15:17;;;;;;;21.48;11.30;;;;;;;;;;5019565;28;20045;-69
2023/08/12 04:17:45;;;;;;;22.40;11.23;;;;;;;;;;5005192;28;20740;-69
2023/08/12 04:20:10;;;;;;;19.95;11.40;;;;;;;;;;5019933;28;20116;-70
2023/08/12 04:22:35;;;;;;;21.30;12.07;;;;;;;;;;5018657;28;20041;-70
2023/08/12 04:25:01;;;;;;;27.02;12.10;;;;;;;;;;5023311;28;20041;-69
2023/08/12 04:27:29;;;;;;;21.75;12.55;;;;;;;;;;5021587;28;20032;-70
2023/08/12 04:29:54;;;;;;;21.38;13.18;;;;;;;;;;5021550;28;20756;-69
2023/08/12 04:32:20;;;;;;;21.77;13.80;;;;;;;;;;5019185;28;20049;-69
2023/08/12 04:34:46;;;;;;;31.63;17.92;;;;;;;;;;5020363;28;20037;-69
2023/08/12 04:37:11;;;;;;;29.48;17.55;;;;;;;;;;5020265;28;20042;-69
2023/08/12 04:39:36;;;;;;;30.42;18.05;;;;;;;;;;5022781;28;20041;-70
2023/08/12 04:42:02;;;;;;;31.50;18.67;;;;;;;;;;5017058;28;20044;-69
2023/08/12 04:44:27;;;;;;;28.55;19.25;;;;;;;;;;5019331;28;20120;-71
2023/08/12 04:46:52;;;;;;;29.08;20.55;;;;;;;;;;5019163;28;20107;-70
2023/08/12 04:49:21;;;;;;;35.15;22.92;;;;;;;;;;5010559;28;20037;-71
2023/08/12 04:51:46;;;;;;;31.17;21.80;;;;;;;;;;5020765;28;20938;-71
2023/08/12 04:54:11;;;;;;;31.45;22.20;;;;;;;;;;5018709;28;20033;-71
2023/08/12 04:56:37;;;;;;;29.83;20.35;;;;;;;;;;5020087;28;20125;-71
2023/08/12 04:59:02;;;;;;;30.98;21.83;;;;;;;;;;5002895;28;20127;-71
2023/08/12 05:01:27;;;;;;;32.42;20.13;;;;;;;;;;5018973;28;20512;-70
2023/08/12 05:03:53;;;;;;;31.52;18.52;;;;;;;;;;5019563;28;20037;-71
2023/08/12 05:06:20;;;;;;;31.25;20.25;;;;;;;;;;5026520;28;20973;-73
2023/08/12 05:08:45;;;;;;;29.92;21.30;;;;;;;;;;5025869;28;20034;-73
2023/08/12 05:11:13;;;;;;;31.52;21.63;;;;;;;;;;5022517;28;20041;-74
2023/08/12 05:13:38;;;;;;;34.47;22.92;;;;;;;;;;5026287;28;20063;-74
2023/08/12 05:16:04;;;;;;;32.42;21.58;;;;;;;;;;5028958;28;20694;-74
2023/08/12 05:18:29;;;;;;;34.63;22.83;;;;;;;;;;5020184;28;20047;-76
2023/08/12 05:20:57;;;;;;;34.15;21.60;;;;;;;;;;5028597;28;21542;-74
2023/08/12 05:23:26;;;;;;;30.10;21.77;;;;;;;;;;5021812;28;20044;-74
2023/08/12 05:25:51;;;;;;;32.00;21.05;;;;;;;;;;5032502;28;20657;-75
2023/08/12 05:28:17;;;;;;;33.25;21.15;;;;;;;;;;5027042;28;20042;-74
2023/08/12 05:30:42;;;;;;;34.40;22.40;;;;;;;;;;5023459;28;20167;-72
2023/08/12 05:33:07;;;;;;;35.28;21.73;;;;;;;;;;5016132;28;20053;-72
2023/08/12 05:35:33;;;;;;;35.70;22.52;;;;;;;;;;5016306;28;20041;-72
2023/08/12 05:37:58;;;;;;;32.45;21.77;;;;;;;;;;5018866;28;20037;-72
2023/08/12 05:40:23;;;;;;;37.80;23.00;;;;;;;;;;5016590;28;20565;-72
2023/08/12 05:42:49;;;;;;;33.72;22.05;;;;;;;;;;5017651;28;20040;-71
2023/08/12 05:45:14;;;;;;;38.33;24.00;;;;;;;;;;5015503;28;20520;-72
2023/08/12 05:47:39;;;;;;;34.35;23.10;;;;;;;;;;5022112;28;22309;-72
2023/08/12 05:50:06;;;;;;;35.47;23.10;;;;;;;;;;5017192;28;20037;-72
2023/08/12 05:52:31;;;;;;;38.03;24.35;;;;;;;;;;5016481;28;20072;-72
2023/08/12 05:54:56;;;;;;;35.20;24.00;;;;;;;;;;5016309;28;20669;-71
2023/08/12 05:57:22;;;;;;;33.70;21.98;;;;;;;;;;5018049;28;20040;-71
2023/08/12 05:59:47;;;;;;;35.20;22.50;;;;;;;;;;5013691;28;20662;-72
2023/08/12 06:02:13;;;;;;;41.03;25.17;;;;;;;;;;5005594;28;20066;-72
2023/08/12 06:04:38;;;;;;;33.83;23.77;;;;;;;;;;5006381;28;20037;-72
2023/08/12 06:07:03;;;;;;;39.97;24.75;;;;;;;;;;5015680;28;20033;-72
2023/08/12 06:09:29;;;;;;;40.78;26.90;;;;;;;;;;5016050;28;20448;-71
2023/08/12 06:11:54;;;;;;;41.50;26.70;;;;;;;;;;5015998;28;20029;-71
2023/08/12 06:14:19;;;;;;;33.63;23.42;;;;;;;;;;5015924;28;20041;-71
2023/08/12 06:16:44;;;;;;;36.53;23.98;;;;;;;;;;5016025;28;20517;-73
2023/08/12 06:19:10;;;;;;;38.90;25.60;;;;;;;;;;5015826;28;20181;-73
2023/08/12 06:21:35;;;;;;;36.70;24.77;;;;;;;;;;5018168;28;20094;-73
2023/08/12 06:24:00;;;;;;;44.08;26.15;;;;;;;;;;5015982;28;20068;-73
2023/08/12 06:26:26;;;;;;;40.90;25.42;;;;;;;;;;5016326;28;20685;-72
2023/08/12 06:28:51;;;;;;;38.60;24.60;;;;;;;;;;5018400;28;20033;-72
2023/08/12 06:31:16;;;;;;;37.10;22.98;;;;;;;;;;5016919;28;20033;-73
2023/08/12 06:33:42;;;;;;;38.33;23.50;;;;;;;;;;5020350;28;20060;-73
2023/08/12 06:36:07;;;;;;;41.17;25.27;;;;;;;;;;5004992;28;20041;-72
2023/08/12 06:38:32;;;;;;;36.88;23.15;;;;;;;;;;5017226;28;20071;-73
2023/08/12 06:40:58;;;;;;;35.28;22.08;;;;;;;;;;5017080;28;20509;-72
2023/08/12 06:43:23;;;;;;;33.90;21.48;;;;;;;;;;5017303;28;20044;-72
2023/08/12 06:45:48;;;;;;;35.97;20.05;;;;;;;;;;5023073;28;20043;-73
2023/08/12 06:48:16;;;;;;;30.23;19.25;;;;;;;;;;5018705;28;20620;-71
2023/08/12 06:50:44;;;;;;;33.22;19.45;;;;;;;;;;5018150;27;20037;-72
2023/08/12 06:53:09;;;;;;;29.23;18.42;;;;;;;;;;5050365;28;20041;-70
2023/08/12 06:55:34;;;;;;;25.27;15.10;;;;;;;;;;5020438;28;20033;-71
2023/08/12 06:58:00;;;;;;;26.02;13.68;;;;;;;;;;5015881;28;20034;-70
2023/08/12 07:00:25;;;;;;;21.38;11.60;;;;;;;;;;4995456;28;20525;-67
2023/08/12 07:02:53;;;;;;;22.33;11.73;;;;;;;;;;5015675;28;20040;-67
2023/08/12 07:05:20;;;;;;;15.85;8.55;;;;;;;;;;5017394;28;20521;-67
2023/08/12 07:07:46;;;;;;;9.40;5.93;;;;;;;;;;5017038;28;20120;-69
2023/08/12 07:10:11;;;;;;;20.95;5.30;;;;;;;;;;5018136;28;20528;-70
2023/08/12 07:12:36;;;;;;;24.23;6.38;;;;;;;;;;5016188;28;20041;-70
2023/08/12 07:15:02;;;;;;;22.17;5.75;;;;;;;;;;5022549;28;20099;-69
2023/08/12 07:17:29;;;;;;;25.60;6.25;;;;;;;;;;5035939;28;20044;-72
2023/08/12 07:19:55;;;;;;;18.10;5.60;;;;;;;;;;5018014;28;20036;-73
2023/08/12 07:22:20;;;;;;;13.77;4.85;;;;;;;;;;5016542;28;20124;-74
2023/08/12 07:24:45;;;;;;;12.25;3.50;;;;;;;;;;5015595;28;20514;-73
2023/08/12 07:27:11;;;;;;;10.73;2.47;;;;;;;;;;5015071;28;21789;-73
2023/08/12 07:29:36;;;;;;;6.32;2.45;;;;;;;;;;5048723;28;20029;-74
2023/08/12 07:32:01;;;;;;;11.23;2.90;;;;;;;;;;5018294;28;20037;-73
2023/08/12 07:34:27;;;;;;;12.88;2.45;;;;;;;;;;5014127;28;20132;-75
2023/08/12 07:36:52;;;;;;;12.32;2.15;;;;;;;;;;4997893;28;23834;-75
2023/08/12 07:39:17;;;;;;;13.88;2.45;;;;;;;;;;5013651;28;20040;-74
2023/08/12 07:41:43;;;;;;;11.00;2.70;;;;;;;;;;5015226;28;20044;-72
2023/08/12 07:44:08;;;;;;;20.42;2.60;;;;;;;;;;5020380;28;20758;-74
2023/08/12 07:46:33;;;;;;;18.80;3.05;;;;;;;;;;5019326;28;20047;-75
2023/08/12 07:48:59;;;;;;;16.02;2.83;;;;;;;;;;5024255;28;20036;-73
2023/08/12 07:51:24;;;;;;;11.73;2.67;;;;;;;;;;5015312;28;20035;-74
2023/08/12 07:53:50;;;;;;;17.33;2.72;;;;;;;;;;5024853;28;20409;-74
2023/08/12 07:56:15;;;;;;;13.32;2.58;;;;;;;;;;5019316;28;20075;-74
2023/08/12 07:58:41;;;;;;;18.88;2.85;;;;;;;;;;5019324;28;20099;-73
2023/08/12 08:01:08;;;;;;;13.02;2.95;;;;;;;;;;5018377;28;20157;-73
2023/08/12 08:03:33;;;;;;;12.35;3.15;;;;;;;;;;5018608;28;20053;-73
2023/08/12 08:05:59;;;;;;;25.20;3.30;;;;;;;;;;5048626;28;20093;-73
2023/08/12 08:08:24;;;;;;;14.45;3.15;;;;;;;;;;5017941;28;20033;-74
2023/08/12 08:10:50;;;;;;;18.45;3.42;;;;;;;;;;5025286;28;20033;-77
2023/08/12 08:13:15;;;;;;;14.95;3.28;;;;;;;;;;5018637;28;20051;-75
2023/08/12 08:15:40;;;;;;;11.48;3.05;;;;;;;;;;5024932;28;20037;-75
2023/08/12 08:18:08;;;;;;;16.05;2.85;;;;;;;;;;5019379;28;20130;-75
2023/08/12 08:20:34;;;;;;;14.77;3.20;;;;;;;;;;5051535;28;20107;-74
2023/08/12 08:23:00;;;;;;;18.85;3.35;;;;;;;;;;5020974;28;20103;-75
2023/08/12 08:25:25;;;;;;;13.40;2.78;;;;;;;;;;5006245;28;20044;-75
2023/08/12 08:27:50;;;;;;;19.58;3.30;;;;;;;;;;5017423;28;20121;-74
2023/08/12 08:30:16;;;;;;;17.17;3.33;;;;;;;;;;5014678;28;20044;-74
2023/08/12 08:32:41;;;;;;;13.23;3.03;;;;;;;;;;5035703;28;20055;-75
2023/08/12 08:35:07;;;;;;;12.93;2.97;;;;;;;;;;5020194;28;20033;-76
2023/08/12 08:37:32;;;;;;;14.10;2.80;;;;;;;;;;5017610;28;20049;-76
2023/08/12 08:39:57;;;;;;;17.50;2.95;;;;;;;;;;5016268;28;20466;-78
2023/08/12 08:42:23;;;;;;;15.27;3.10;;;;;;;;;;5018765;28;20033;-74
2023/08/12 08:44:51;;;;;;;14.50;3.05;;;;;;;;;;5022625;28;20554;-76
2023/08/12 08:47:19;;;;;;;14.48;3.80;;;;;;;;;;5017466;28;20041;-75
2023/08/12 08:49:44;;;;;;;17.23;3.97;;;;;;;;;;5017878;28;20032;-76
2023/08/12 08:52:10;;;;;;;16.55;2.92;;;;;;;;;;5020388;28;20037;-76
2023/08/12 08:54:35;;;;;;;15.75;3.00;;;;;;;;;;5017828;28;20142;-76
2023/08/12 08:57:01;;;;;;;19.63;3.22;;;;;;;;;;5006863;28;20521;-75
2023/08/12 08:59:26;;;;;;;19.35;3.40;;;;;;;;;;5019730;28;20502;-75
2023/08/12 09:01:51;;;;;;;14.60;3.30;;;;;;;;;;5016082;28;20091;-75
2023/08/12 09:04:17;;;;;;;12.40;3.22;;;;;;;;;;5017358;28;20636;-75
2023/08/12 09:06:44;;;;;;;12.80;3.15;;;;;;;;;;5019380;28;20761;-75
2023/08/12 09:09:14;;;;;;;15.25;3.33;;;;;;;;;;5020053;28;20031;-78
2023/08/12 09:11:40;;;;;;;13.83;3.30;;;;;;;;;;5004557;28;20038;-78
2023/08/12 09:14:06;;;;;;;10.77;3.50;;;;;;;;;;4995671;28;20127;-77
2023/08/12 09:16:31;;;;;;;9.77;2.72;;;;;;;;;;4998108;28;20501;-75
2023/08/12 09:18:57;;;;;;;13.70;3.00;;;;;;;;;;4998849;28;21121;-74
2023/08/12 09:21:23;;;;;;;11.73;2.83;;;;;;;;;;4998594;28;20038;-76
2023/08/12 09:23:48;;;;;;;9.68;2.45;;;;;;;;;;4998930;28;20034;-76
2023/08/12 09:26:15;;;;;;;9.57;2.60;;;;;;;;;;4998223;28;20034;-76
2023/08/12 09:28:41;;;;;;;10.32;2.45;;;;;;;;;;5026612;28;20553;-75
2023/08/12 09:31:08;;;;;;;16.77;3.08;;;;;;;;;;4994556;28;20037;-73
2023/08/12 09:33:38;;;;;;;10.35;2.67;;;;;;;;;;4996158;28;20050;-76
2023/08/12 09:36:04;;;;;;;10.45;2.63;;;;;;;;;;4996595;28;20512;-73
2023/08/12 09:38:29;;;;;;;11.43;2.65;;;;;;;;;;4993713;28;20051;-74
2023/08/12 09:40:58;;;;;;;12.10;2.42;;;;;;;;;;4995361;28;20041;-74
2023/08/12 09:43:24;;;;;;;10.18;2.63;;;;;;;;;;5008228;28;20179;-75
2023/08/12 09:45:49;;;;;;;7.05;2.60;;;;;;;;;;4994793;28;20037;-74
2023/08/12 09:48:16;;;;;;;11.20;2.95;;;;;;;;;;4994083;28;20034;-72
2023/08/12 09:50:45;;;;;;;13.13;2.70;;;;;;;;;;4999355;28;20518;-71
2023/08/12 09:53:11;;;;;;;10.55;2.50;;;;;;;;;;4996427;28;20418;-73
2023/08/12 09:55:38;;;;;;;12.27;2.58;;;;;;;;;;4990971;28;20052;-75
2023/08/12 09:58:06;;;;;;;16.98;3.40;;;;;;;;;;4994913;28;20033;-74
2023/08/12 10:00:31;;;;;;;15.38;3.40;;;;;;;;;;5015749;28;20298;-74
2023/08/12 10:02:58;;;;;;;13.85;2.83;;;;;;;;;;5018934;28;20165;-74
2023/08/12 10:05:31;;;;;;;8.60;2.60;;;;;;;;;;5021204;28;20164;-73
2023/08/12 10:07:56;;;;;;;11.25;2.85;;;;;;;;;;5015824;28;20030;-74
2023/08/12 10:10:25;;;;;;;13.43;2.78;;;;;;;;;;5018403;28;20134;-72
2023/08/12 10:12:51;;;;;;;11.68;2.83;;;;;;;;;;5015410;28;20045;-73
2023/08/12 10:15:16;;;;;;;10.80;2.85;;;;;;;;;;5022568;28;20075;-73
2023/08/12 10:17:43;;;;;;;11.88;3.15;;;;;;;;;;5031953;28;20048;-73
2023/08/12 10:20:12;;;;;;;12.45;3.00;;;;;;;;;;5013972;28;20071;-72
2023/08/12 10:22:38;;;;;;;16.52;4.78;;;;;;;;;;5017390;28;20041;-72
2023/08/12 10:25:04;;;;;;;11.60;3.10;;;;;;;;;;5021808;28;20099;-74
2023/08/12 10:27:29;;;;;;;12.90;3.03;;;;;;;;;;5005024;28;20037;-69
2023/08/12 10:30:00;;;;;;;15.63;3.00;;;;;;;;;;5018740;28;20038;-73
2023/08/12 10:32:26;;;;;;;8.48;2.40;;;;;;;;;;5016534;28;20121;-69
2023/08/12 10:34:56;;;;;;;13.68;3.20;;;;;;;;;;5023494;28;20037;-70
2023/08/12 10:37:23;;;;;;;13.30;3.13;;;;;;;;;;5019020;28;20522;-69
2023/08/12 10:39:48;;;;;;;9.38;2.60;;;;;;;;;;5048859;28;20738;-69
2023/08/12 10:42:33;;;;;;;9.55;2.80;;;;;;;;;;5016395;28;20029;-68
2023/08/12 10:45:05;;;;;;;12.70;2.92;;;;;;;;;;5014990;28;20036;-68
2023/08/12 10:47:30;;;;;;;10.80;3.33;;;;;;;;;;5017073;28;20033;-69
2023/08/12 10:49:56;;;;;;;11.40;2.97;;;;;;;;;;5005490;28;20473;-68
2023/08/12 10:52:28;;;;;;;13.93;2.80;;;;;;;;;;5020185;28;20029;-68
2023/08/12 10:54:53;;;;;;;9.23;2.60;;;;;;;;;;5013365;28;20089;-68
2023/08/12 10:57:34;;;;;;;13.63;3.15;;;;;;;;;;4994678;28;21113;-69
2023/08/12 10:59:59;;;;;;;13.43;2.65;;;;;;;;;;5018887;28;20041;-70
2023/08/12 11:02:36;;;;;;;13.23;3.28;;;;;;;;;;5017247;28;20033;-69
2023/08/12 11:05:08;;;;;;;12.18;2.65;;;;;;;;;;5017389;28;20048;-70
2023/08/12 11:07:41;;;;;;;12.25;3.17;;;;;;;;;;5048218;28;20497;-68
2023/08/12 11:10:21;;;;;;;15.07;3.00;;;;;;;;;;5018336;28;20033;-69
2023/08/12 11:12:52;;;;;;;11.55;2.67;;;;;;;;;;5015386;28;20482;-68
2023/08/12 11:15:28;;;;;;;11.88;3.00;;;;;;;;;;5015607;28;20130;-68
2023/08/12 11:17:54;;;;;;;12.45;3.33;;;;;;;;;;5027721;28;20044;-68
2023/08/12 11:20:20;;;;;;;10.27;2.65;;;;;;;;;;5017927;28;20041;-67
2023/08/12 11:22:48;;;;;;;12.55;3.50;;;;;;;;;;5015926;28;20044;-68
2023/08/12 11:25:14;;;;;;;13.23;3.30;;;;;;;;;;5020284;28;20595;-67
2023/08/12 11:27:43;;;;;;;12.02;3.30;;;;;;;;;;5010119;28;20086;-68
2023/08/12 11:30:14;;;;;;;12.88;3.42;;;;;;;;;;5018858;28;20099;-70
2023/08/12 11:32:40;;;;;;;15.15;3.45;;;;;;;;;;5014858;28;20066;-68
2023/08/12 11:35:07;;;;;;;18.98;3.78;;;;;;;;;;5022575;28;20640;-68
2023/08/12 11:37:32;;;;;;;14.40;3.22;;;;;;;;;;5013927;28;20041;-69
2023/08/12 11:39:57;;;;;;;11.65;3.00;;;;;;;;;;5016107;28;20299;-69
2023/08/12 11:42:23;;;;;;;13.55;3.13;;;;;;;;;;5014890;28;20037;-67
2023/08/12 11:44:50;;;;;;;15.88;2.97;;;;;;;;;;5015150;28;20484;-69
2023/08/12 11:47:16;;;;;;;14.85;3.50;;;;;;;;;;5013111;28;20664;-69
2023/08/12 11:49:41;;;;;;;16.45;3.58;;;;;;;;;;5014840;28;20037;-69
2023/08/12 11:52:08;;;;;;;12.02;3.22;;;;;;;;;;5020720;28;20061;-70
2023/08/12 11:54:34;;;;;;;14.73;3.35;;;;;;;;;;5015752;28;20044;-73
2023/08/12 11:56:59;;;;;;;15.40;3.55;;;;;;;;;;5017860;28;20036;-71
2023/08/12 11:59:26;;;;;;;14.20;3.05;;;;;;;;;;5016430;28;20965;-69
2023/08/12 12:01:51;;;;;;;16.48;3.75;;;;;;;;;;5016340;28;20039;-70
2023/08/12 12:04:19;;;;;;;14.35;3.53;;;;;;;;;;5017596;28;20038;-69
2023/08/12 12:06:45;;;;;;;11.88;2.80;;;;;;;;;;5015743;28;20033;-68
2023/08/12 12:09:11;;;;;;;14.15;3.20;;;;;;;;;;5015377;28;20510;-72
2023/08/12 12:11:37;;;;;;;10.65;2.60;;;;;;;;;;5017760;28;20039;-69
2023/08/12 12:14:05;;;;;;;17.13;3.50;;;;;;;;;;5015088;28;20390;-68
2023/08/12 12:16:40;;;;;;;13.15;2.78;;;;;;;;;;5013536;28;20043;-71
2023/08/12 12:19:08;;;;;;;21.02;3.60;;;;;;;;;;5014280;28;20049;-69
2023/08/12 12:21:40;;;;;;;11.68;3.10;;;;;;;;;;5011455;28;20533;-68
2023/08/12 12:24:06;;;;;;;16.30;3.22;;;;;;;;;;5015124;28;20635;-67
2023/08/12 12:26:32;;;;;;;12.85;3.33;;;;;;;;;;5015644;28;20040;-67
2023/08/12 12:28:57;;;;;;;17.52;3.80;;;;;;;;;;5012177;28;20120;-67
2023/08/12 12:31:22;;;;;;;18.05;3.42;;;;;;;;;;5012227;28;20034;-70
2023/08/12 12:33:47;;;;;;;13.95;3.65;;;;;;;;;;5013554;28;20049;-69
2023/08/12 12:36:13;;;;;;;14.13;3.60;;;;;;;;;;5034351;28;20845;-69
2023/08/12 12:38:38;;;;;;;15.57;3.35;;;;;;;;;;5013864;28;20037;-68
2023/08/12 12:41:03;;;;;;;17.17;4.38;;;;;;;;;;5015011;28;20044;-70
2023/08/12 12:43:28;;;;;;;12.77;3.70;;;;;;;;;;5014442;28;20041;-69
2023/08/12 12:45:54;;;;;;;14.93;3.25;;;;;;;;;;5023596;28;20107;-70
2023/08/12 12:48:19;;;;;;;13.27;3.45;;;;;;;;;;5016781;28;20754;-69
2023/08/12 12:50:44;;;;;;;20.60;3.92;;;;;;;;;;5020836;28;20646;-71
2023/08/12 12:53:10;;;;;;;13.20;3.40;;;;;;;;;;5019370;28;20053;-67
2023/08/12 12:55:35;;;;;;;16.13;3.80;;;;;;;;;;5016291;28;20108;-69
2023/08/12 12:58:01;;;;;;;15.90;3.72;;;;;;;;;;5004162;28;20124;-69
2023/08/12 13:00:26;;;;;;;13.70;3.60;;;;;;;;;;5015991;28;20143;-67
2023/08/12 13:02:51;;;;;;;14.63;3.67;;;;;;;;;;5016351;28;20492;-68
2023/08/12 13:05:16;;;;;;;14.95;3.88;;;;;;;;;;5016957;28;20489;-68
2023/08/12 13:07:44;;;;;;;15.68;3.63;;;;;;;;;;5021061;28;20040;-68
2023/08/12 13:10:09;;;;;;;14.52;4.13;;;;;;;;;;5016766;28;20099;-67
2023/08/12 13:12:35;;;;;;;18.17;3.97;;;;;;;;;;5004568;28;20045;-71
2023/08/12 13:15:00;;;;;;;9.65;3.13;;;;;;;;;;5015763;28;20040;-70
2023/08/12 13:17:25;;;;;;;13.90;3.40;;;;;;;;;;5019305;28;20040;-68
2023/08/12 13:19:51;;;;;;;15.43;3.38;;;;;;;;;;5014668;28;20044;-69
2023/08/12 13:22:16;;;;;;;12.30;3.13;;;;;;;;;;5020602;28;20561;-69
2023/08/12 13:24:41;;;;;;;12.23;3.28;;;;;;;;;;5005064;28;22360;-70
2023/08/12 13:27:07;;;;;;;12.95;3.35;;;;;;;;;;5014600;28;20490;-69
2023/08/12 13:29:33;;;;;;;16.45;3.25;;;;;;;;;;5015095;28;20167;-69
2023/08/12 13:32:01;;;;;;;14.07;3.25;;;;;;;;;;5014545;28;20396;-68
2023/08/12 13:34:26;;;;;;;14.40;3.22;;;;;;;;;;5047601;28;20215;-69
2023/08/12 13:36:51;;;;;;;18.63;3.40;;;;;;;;;;5047460;28;20044;-68
2023/08/12 13:39:17;;;;;;;16.17;3.63;;;;;;;;;;5016508;28;20029;-69
2023/08/12 13:41:43;;;;;;;13.80;3.38;;;;;;;;;;5015259;28;20473;-68
2023/08/12 13:44:08;;;;;;;14.93;3.20;;;;;;;;;;5019073;28;20059;-70
2023/08/12 13:46:34;;;;;;;21.15;3.60;;;;;;;;;;5020755;28;22095;-70
2023/08/12 13:48:59;;;;;;;14.02;3.33;;;;;;;;;;5021913;28;20048;-69
2023/08/12 13:51:24;;;;;;;15.25;3.25;;;;;;;;;;5018236;28;20033;-69
2023/08/12 13:53:50;;;;;;;19.23;3.58;;;;;;;;;;5017291;28;21887;-71
2023/08/12 13:56:16;;;;;;;13.45;3.28;;;;;;;;;;5021067;28;20083;-69
2023/08/12 13:58:41;;;;;;;20.95;3.78;;;;;;;;;;5022147;28;20319;-69
2023/08/12 14:01:06;;;;;;;16.08;3.42;;;;;;;;;;5021075;28;20041;-69
2023/08/12 14:03:32;;;;;;;13.10;2.70;;;;;;;;;;5018149;28;20043;-68
2023/08/12 14:05:57;;;;;;;14.70;3.33;;;;;;;;;;5018939;28;21189;-72
2023/08/12 14:08:23;;;;;;;13.90;3.17;;;;;;;;;;5017888;28;20116;-71
2023/08/12 14:10:50;;;;;;;16.85;3.25;;;;;;;;;;5022125;28;20037;-69
2023/08/12 14:13:15;;;;;;;14.43;3.30;;;;;;;;;;5018015;28;20045;-70
2023/08/12 14:15:40;;;;;;;15.27;3.42;;;;;;;;;;5021754;28;20033;-69
2023/08/12 14:18:06;;;;;;;16.60;3.45;;;;;;;;;;5016002;27;20049;-69
2023/08/12 14:20:31;;;;;;;15.80;3.67;;;;;;;;;;5018771;28;20036;-69
2023/08/12 14:22:56;;;;;;;14.05;3.92;;;;;;;;;;5031963;28;20527;-68